Time;durP1;ratioP1;P1;durP2;ratioP2;P2;SDS_P1;SDS_P2;PMS_P1;PMS_P2;Temp;Humidity;BMP_temperature;BMP_pressure;BME280_temperature;BME280_humidity;BME280_pressure;Samples;Min_cycle;Max_cycle;Signal;HPM_P1;HPM_P2
2023/03/21 00:01:14;;;;;;;3.00;1.40;;;;;6.10;94263.00;;;;7402707;19;20204;-75
2023/03/21 00:03:50;;;;;;;1.90;1.50;;;;;6.10;94256.00;;;;7398950;19;20500;-74
2023/03/21 00:06:24;;;;;;;2.33;1.40;;;;;6.00;94250.00;;;;7403664;19;20129;-75
2023/03/21 00:08:58;;;;;;;2.87;1.10;;;;;5.90;94251.00;;;;7401543;19;20156;-75
2023/03/21 00:11:32;;;;;;;2.80;1.57;;;;;5.90;94242.00;;;;7402557;19;20117;-73
2023/03/21 00:14:07;;;;;;;2.37;1.53;;;;;6.00;94244.00;;;;7400149;19;20136;-74
2023/03/21 00:16:36;;;;;;;2.87;1.70;;;;;6.00;94239.00;;;;7399096;19;20701;-74
2023/03/21 00:19:10;;;;;;;3.03;1.53;;;;;6.10;94233.00;;;;7401784;19;20131;-74
2023/03/21 00:21:41;;;;;;;4.90;1.60;;;;;6.10;94223.00;;;;7402446;19;20129;-74
2023/03/21 00:24:33;;;;;;;1.50;1.23;;;;;6.20;94236.00;;;;7403075;19;20132;-75
2023/03/21 00:27:00;;;;;;;5.80;1.77;;;;;6.20;94226.00;;;;7394239;19;20129;-75
2023/03/21 00:29:54;;;;;;;1.83;1.50;;;;;6.10;94236.00;;;;7391611;19;20164;-74
2023/03/21 00:32:28;;;;;;;1.50;1.40;;;;;6.10;94227.00;;;;7401245;19;20137;-75
2023/03/21 00:35:15;;;;;;;2.27;1.60;;;;;6.20;94226.00;;;;7400318;19;20169;-74
2023/03/21 00:38:09;;;;;;;1.83;1.50;;;;;6.20;94232.00;;;;7401873;19;20591;-74
2023/03/21 00:40:44;;;;;;;1.90;1.50;;;;;6.20;94220.00;;;;7401430;19;20471;-75
2023/03/21 00:43:28;;;;;;;1.50;1.40;;;;;6.20;94222.00;;;;7401678;19;20150;-75
2023/03/21 00:45:58;;;;;;;2.33;1.30;;;;;6.20;94217.00;;;;7399176;19;20467;-73
2023/03/21 00:48:32;;;;;;;3.70;1.50;;;;;6.20;94214.00;;;;7399958;19;20140;-75
2023/03/21 00:51:00;;;;;;;2.03;1.67;;;;;6.10;94213.00;;;;7400060;19;20133;-75
2023/03/21 00:53:34;;;;;;;2.50;1.40;;;;;6.10;94214.00;;;;7399555;19;20166;-74
2023/03/21 00:56:08;;;;;;;1.57;1.33;;;;;6.10;94214.00;;;;7400956;19;20596;-75
2023/03/21 00:58:42;;;;;;;2.70;1.50;;;;;6.20;94208.00;;;;7398443;19;20148;-75
2023/03/21 01:01:17;;;;;;;3.90;1.67;;;;;6.20;94197.00;;;;7393646;19;20145;-75
2023/03/21 01:03:49;;;;;;;3.53;1.20;;;;;6.20;94210.00;;;;7398008;19;20168;-74
2023/03/21 01:06:26;;;;;;;2.33;1.33;;;;;6.30;94204.00;;;;7400058;19;20150;-75
2023/03/21 01:08:54;;;;;;;3.20;1.30;;;;;6.20;94197.00;;;;7397471;19;20168;-75
2023/03/21 01:11:28;;;;;;;3.03;1.23;;;;;6.20;94194.00;;;;7399152;19;20144;-74
2023/03/21 01:13:56;;;;;;;1.73;1.43;;;;;6.20;94193.00;;;;7397549;19;20136;-75
2023/03/21 01:16:49;;;;;;;1.40;1.20;;;;;6.20;94190.00;;;;7399164;19;20143;-75
2023/03/21 01:19:27;;;;;;;1.60;1.13;;;;;6.20;94187.00;;;;7398961;19;20453;-74
2023/03/21 01:22:18;;;;;;;3.23;1.50;;;;;6.20;94191.00;;;;7400923;19;20129;-73
2023/03/21 01:24:46;;;;;;;2.23;1.50;;;;;6.10;94192.00;;;;7398607;19;20120;-74
2023/03/21 01:27:29;;;;;;;1.97;1.33;;;;;6.10;94188.00;;;;7398867;19;20113;-74
2023/03/21 01:30:05;;;;;;;1.87;1.43;;;;;6.10;94187.00;;;;7391927;19;20498;-74
2023/03/21 01:32:47;;;;;;;1.50;1.17;;;;;6.00;94196.00;;;;7399306;19;20131;-73
2023/03/21 01:35:21;;;;;;;2.30;1.17;;;;;6.00;94193.00;;;;7399178;19;20148;-75
2023/03/21 01:38:03;;;;;;;1.80;1.30;;;;;6.00;94194.00;;;;7399112;19;20132;-74
2023/03/21 01:40:39;;;;;;;2.77;1.50;;;;;6.00;94196.00;;;;7397856;19;20495;-75
2023/03/21 01:43:21;;;;;;;2.13;1.30;;;;;5.90;94192.00;;;;7400006;19;20136;-75
2023/03/21 01:46:26;;;;;;;2.50;1.30;;;;;5.90;94187.00;;;;7399236;19;20121;-74
2023/03/21 01:49:24;;;;;;;2.20;1.30;;;;;5.90;94193.00;;;;7398758;19;20129;-73
2023/03/21 01:52:09;;;;;;;2.50;1.20;;;;;5.80;94187.00;;;;7397869;19;20144;-75
2023/03/21 01:54:45;;;;;;;1.57;1.40;;;;;5.80;94183.00;;;;7396787;19;20135;-75
2023/03/21 01:57:31;;;;;;;1.93;1.40;;;;;5.90;94184.00;;;;7398562;19;20124;-76
2023/03/21 02:00:14;;;;;;;2.47;1.63;;;;;5.80;94200.00;;;;7397127;19;20147;-75
2023/03/21 02:02:54;;;;;;;2.10;1.53;;;;;5.80;94201.00;;;;7398519;19;20133;-76
2023/03/21 02:05:59;;;;;;;1.50;1.40;;;;;5.80;94188.00;;;;7397008;19;20140;-76
2023/03/21 02:08:40;;;;;;;1.70;1.50;;;;;5.80;94183.00;;;;7396078;19;20643;-77
2023/03/21 02:11:11;;;;;;;2.10;1.60;;;;;5.70;94179.00;;;;7401327;19;20621;-77
2023/03/21 02:13:45;;;;;;;2.10;1.47;;;;;5.70;94171.00;;;;7405243;19;20124;-76
2023/03/21 02:17:00;;;;;;;1.47;1.20;;;;;5.60;94165.00;;;;7404917;19;20215;-76
2023/03/21 02:19:46;;;;;;;2.50;1.60;;;;;5.60;94164.00;;;;7407013;19;20153;-77
2023/03/21 02:22:32;;;;;;;2.83;1.70;;;;;5.50;94171.00;;;;7404351;19;20136;-77
2023/03/21 02:25:30;;;;;;;3.10;1.70;;;;;5.60;94166.00;;;;7405868;19;20120;-77
2023/03/21 02:28:22;;;;;;;1.73;1.20;;;;;5.50;94168.00;;;;7402380;19;20587;-74
2023/03/21 02:31:18;;;;;;;2.50;1.63;;;;;5.50;94163.00;;;;7405445;19;20160;-76
2023/03/21 02:34:20;;;;;;;2.67;1.70;;;;;5.50;94160.00;;;;7399514;19;20599;-76
2023/03/21 02:37:00;;;;;;;3.27;1.50;;;;;5.50;94160.00;;;;7403594;19;20220;-76
2023/03/21 02:40:11;;;;;;;1.77;1.43;;;;;5.40;94163.00;;;;7404131;19;20572;-76
2023/03/21 02:43:16;;;;;;;2.33;1.50;;;;;5.40;94159.00;;;;7403677;19;20507;-75
2023/03/21 02:46:17;;;;;;;2.10;1.77;;;;;5.40;94161.00;;;;7403381;19;20168;-74
2023/03/21 02:49:19;;;;;;;2.70;1.47;;;;;5.30;94153.00;;;;7404138;19;20133;-76
2023/03/21 02:51:55;;;;;;;2.27;1.47;;;;;5.30;94154.00;;;;7405608;19;20129;-76
2023/03/21 02:54:33;;;;;;;2.57;1.30;;;;;5.30;94165.00;;;;7401197;19;20125;-75
2023/03/21 02:57:20;;;;;;;2.00;1.50;;;;;5.20;94156.00;;;;7404767;19;20153;-76
2023/03/21 03:00:12;;;;;;;5.20;1.77;;;;;5.30;94157.00;;;;7402313;19;20145;-75
2023/03/21 03:02:44;;;;;;;3.20;1.87;;;;;5.30;94156.00;;;;7400628;19;20693;-77
2023/03/21 03:05:40;;;;;;;2.93;1.40;;;;;5.30;94154.00;;;;7404410;19;20121;-76
2023/03/21 03:08:23;;;;;;;3.30;1.73;;;;;5.40;94145.00;;;;7402193;19;20671;-77
2023/03/21 03:11:27;;;;;;;1.77;1.53;;;;;5.30;94142.00;;;;7402537;19;20117;-78
2023/03/21 03:14:36;;;;;;;1.70;1.50;;;;;5.20;94143.00;;;;7401203;19;20168;-76
2023/03/21 03:18:01;;;;;;;2.13;1.30;;;;;5.10;94146.00;;;;7404298;19;20125;-78
2023/03/21 03:20:46;;;;;;;2.93;1.83;;;;;5.00;94129.00;;;;7401512;19;20146;-75
2023/03/21 03:23:44;;;;;;;2.30;1.40;;;;;5.00;94129.00;;;;7400365;19;20159;-75
2023/03/21 03:26:25;;;;;;;1.33;1.23;;;;;5.00;94126.00;;;;7402338;19;20120;-76
2023/03/21 03:29:06;;;;;;;2.33;1.70;;;;;4.90;94128.00;;;;7404398;19;20152;-77
2023/03/21 03:32:02;;;;;;;2.97;1.70;;;;;4.80;94122.00;;;;7402932;19;20172;-76
2023/03/21 03:34:40;;;;;;;2.77;1.60;;;;;4.70;94121.00;;;;7395742;19;20612;-77
2023/03/21 03:37:11;;;;;;;2.50;1.70;;;;;4.60;94131.00;;;;7401497;19;20523;-75
2023/03/21 03:40:07;;;;;;;3.53;2.60;;;;;4.70;94133.00;;;;7401665;19;20167;-77
2023/03/21 03:42:41;;;;;;;2.70;1.70;;;;;4.50;94131.00;;;;7401852;19;20262;-77
2023/03/21 03:45:16;;;;;;;3.03;1.73;;;;;4.30;94139.00;;;;7401920;19;20145;-76
2023/03/21 03:48:00;;;;;;;3.00;1.60;;;;;4.10;94135.00;;;;7403534;19;20137;-75
2023/03/21 03:50:41;;;;;;;1.70;1.50;;;;;4.00;94133.00;;;;7403356;19;20483;-76
2023/03/21 03:53:21;;;;;;;4.27;1.77;;;;;3.80;94129.00;;;;7398484;19;20125;-76
2023/03/21 03:55:56;;;;;;;2.63;1.80;;;;;3.80;94132.00;;;;7401298;19;20455;-77
2023/03/21 03:58:26;;;;;;;5.47;1.70;;;;;3.80;94136.00;;;;7401777;19;20145;-77
2023/03/21 04:01:11;;;;;;;2.73;1.80;;;;;3.70;94135.00;;;;7401124;19;20141;-77
2023/03/21 04:03:48;;;;;;;3.30;2.07;;;;;3.80;94125.00;;;;7400398;19;20169;-76
2023/03/21 04:06:39;;;;;;;3.73;1.90;;;;;3.80;94132.00;;;;7402218;19;20193;-75
2023/03/21 04:09:14;;;;;;;3.07;2.47;;;;;3.80;94133.00;;;;7400256;19;20145;-77
2023/03/21 04:12:03;;;;;;;2.23;1.83;;;;;3.70;94129.00;;;;7403098;19;20133;-76
2023/03/21 04:14:37;;;;;;;4.00;1.80;;;;;3.70;94129.00;;;;7401415;19;20139;-75
2023/03/21 04:17:14;;;;;;;2.80;2.00;;;;;3.60;94114.00;;;;7399292;19;20600;-74
2023/03/21 04:19:50;;;;;;;2.83;2.10;;;;;3.60;94111.00;;;;7401429;19;20503;-75
2023/03/21 04:22:24;;;;;;;1.90;1.70;;;;;3.40;94123.00;;;;7401760;19;20136;-76
2023/03/21 04:24:58;;;;;;;4.33;2.03;;;;;3.40;94117.00;;;;7401902;19;20486;-75
2023/03/21 04:27:27;;;;;;;3.57;2.03;;;;;3.50;94117.00;;;;7402539;19;20180;-77
2023/03/21 04:30:01;;;;;;;7.33;2.27;;;;;3.60;94127.00;;;;7401547;19;20642;-75
2023/03/21 04:32:38;;;;;;;5.70;2.43;;;;;3.60;94129.00;;;;7401216;19;20128;-74
2023/03/21 04:35:12;;;;;;;3.07;1.90;;;;;3.60;94125.00;;;;7399819;19;20183;-75
2023/03/21 04:37:46;;;;;;;3.20;1.80;;;;;3.60;94124.00;;;;7402630;19;20192;-74
2023/03/21 04:40:17;;;;;;;4.93;2.10;;;;;3.60;94119.00;;;;7400931;19;20145;-77
2023/03/21 04:42:51;;;;;;;4.37;2.00;;;;;3.50;94115.00;;;;7401918;19;20137;-74
2023/03/21 04:45:19;;;;;;;3.07;2.20;;;;;3.50;94118.00;;;;7401331;19;20117;-75
2023/03/21 04:47:53;;;;;;;4.47;2.20;;;;;3.40;94118.00;;;;7401554;19;20583;-78
2023/03/21 04:50:20;;;;;;;5.47;2.70;;;;;3.50;94113.00;;;;7401361;19;20117;-77
2023/03/21 04:52:54;;;;;;;4.60;2.40;;;;;3.50;94115.00;;;;7399277;19;20145;-76
2023/03/21 04:55:21;;;;;;;2.33;2.13;;;;;3.40;94118.00;;;;7398546;19;20188;-77
2023/03/21 04:57:56;;;;;;;2.50;2.27;;;;;3.40;94116.00;;;;7395152;19;20603;-77
2023/03/21 05:00:31;;;;;;;3.27;2.40;;;;;3.40;94115.00;;;;7399718;19;20146;-77
2023/03/21 05:02:59;;;;;;;4.07;2.07;;;;;3.30;94118.00;;;;7398354;19;20172;-76
2023/03/21 05:05:36;;;;;;;6.53;2.13;;;;;3.30;94118.00;;;;7400520;19;20128;-78
2023/03/21 05:08:05;;;;;;;3.83;2.47;;;;;3.30;94112.00;;;;7401147;19;20130;-76
2023/03/21 05:10:45;;;;;;;4.93;2.60;;;;;3.30;94110.00;;;;7400371;19;20164;-76
2023/03/21 05:13:13;;;;;;;4.37;2.40;;;;;3.30;94115.00;;;;7398214;19;20133;-77
2023/03/21 05:15:47;;;;;;;5.70;2.40;;;;;3.40;94108.00;;;;7398987;19;20120;-76
2023/03/21 05:18:23;;;;;;;4.00;2.20;;;;;3.30;94113.00;;;;7399061;19;20611;-77
2023/03/21 05:20:58;;;;;;;4.57;2.33;;;;;3.10;94106.00;;;;7398850;19;20139;-77
2023/03/21 05:23:30;;;;;;;5.80;2.20;;;;;3.10;94104.00;;;;7398771;19;20136;-74
2023/03/21 05:26:09;;;;;;;6.23;2.17;;;;;3.20;94116.00;;;;7399517;19;20132;-76
2023/03/21 05:28:43;;;;;;;4.17;2.00;;;;;3.20;94102.00;;;;7398988;19;20152;-75
2023/03/21 05:31:18;;;;;;;4.97;2.30;;;;;3.40;94102.00;;;;7398345;19;20129;-75
2023/03/21 05:33:53;;;;;;;3.97;2.30;;;;;3.30;94110.00;;;;7397809;19;20161;-76
2023/03/21 05:36:22;;;;;;;5.90;2.70;;;;;3.50;94105.00;;;;7400302;19;20131;-75
2023/03/21 05:38:56;;;;;;;4.07;2.37;;;;;3.50;94094.00;;;;7398364;19;20144;-75
2023/03/21 05:41:23;;;;;;;2.53;2.20;;;;;3.40;94102.00;;;;7398866;19;20649;-75
2023/03/21 05:43:57;;;;;;;3.33;2.33;;;;;3.40;94113.00;;;;7397909;19;20137;-74
2023/03/21 05:46:24;;;;;;;6.67;2.20;;;;;3.50;94110.00;;;;7396874;19;20248;-75
2023/03/21 05:48:59;;;;;;;8.03;2.43;;;;;3.60;94103.00;;;;7398031;19;20147;-77
2023/03/21 05:51:26;;;;;;;4.90;2.00;;;;;3.80;94106.00;;;;7398534;19;20550;-78
2023/03/21 05:54:00;;;;;;;3.00;2.30;;;;;3.80;94111.00;;;;7398753;19;20204;-75
2023/03/21 05:56:29;;;;;;;4.00;2.47;;;;;3.80;94114.00;;;;7397637;19;20137;-76
2023/03/21 05:59:04;;;;;;;4.67;2.63;;;;;3.90;94113.00;;;;7395605;19;20446;-75
2023/03/21 06:01:31;;;;;;;4.17;2.43;;;;;4.00;94110.00;;;;7398515;19;20188;-76
2023/03/21 06:04:05;;;;;;;4.63;3.30;;;;;4.20;94102.00;;;;7399317;19;20139;-76
2023/03/21 06:06:39;;;;;;;4.83;2.60;;;;;4.30;94106.00;;;;7397819;19;20472;-76
2023/03/21 06:09:27;;;;;;;4.50;2.37;;;;;4.30;94104.00;;;;7396421;19;20177;-76
2023/03/21 06:12:02;;;;;;;3.40;2.63;;;;;4.50;94102.00;;;;7396767;19;20204;-77
2023/03/21 06:14:38;;;;;;;3.50;2.17;;;;;4.80;94104.00;;;;7396716;19;20132;-76
2023/03/21 06:17:12;;;;;;;6.07;2.57;;;;;5.10;94103.00;;;;7398618;19;20136;-76
2023/03/21 06:19:39;;;;;;;3.67;2.80;;;;;5.30;94101.00;;;;7398487;19;20121;-76
2023/03/21 06:22:14;;;;;;;5.20;2.90;;;;;5.60;94107.00;;;;7395781;19;20155;-76
2023/03/21 06:24:55;;;;;;;3.50;2.27;;;;;5.60;94109.00;;;;7396844;19;20147;-77
2023/03/21 06:27:30;;;;;;;3.60;2.50;;;;;5.60;94106.00;;;;7398552;19;20465;-75
2023/03/21 06:29:57;;;;;;;3.33;2.20;;;;;5.70;94100.00;;;;7396836;19;20141;-75
2023/03/21 06:32:32;;;;;;;4.80;2.73;;;;;6.00;94106.00;;;;7398404;19;20144;-74
2023/03/21 06:34:59;;;;;;;3.83;2.40;;;;;6.10;94101.00;;;;7395017;19;20161;-75
2023/03/21 06:37:27;;;;;;;4.37;2.67;;;;;6.40;94093.00;;;;7398232;19;20151;-75
2023/03/21 06:40:01;;;;;;;4.30;2.70;;;;;6.70;94099.00;;;;7396484;19;20143;-74
2023/03/21 06:42:29;;;;;;;3.20;2.40;;;;;6.70;94093.00;;;;7398267;19;20165;-74
2023/03/21 06:45:03;;;;;;;4.67;2.23;;;;;6.70;94094.00;;;;7396245;19;20128;-74
2023/03/21 06:47:31;;;;;;;4.30;2.30;;;;;7.00;94086.00;;;;7396098;19;20133;-74
2023/03/21 06:50:06;;;;;;;8.27;2.47;;;;;7.30;94085.00;;;;7396546;19;20632;-75
2023/03/21 06:52:33;;;;;;;2.30;2.03;;;;;7.50;94090.00;;;;7395864;19;20154;-75
2023/03/21 06:55:08;;;;;;;3.23;2.23;;;;;7.70;94082.00;;;;7395519;19;20141;-74
2023/03/21 06:57:35;;;;;;;4.30;2.23;;;;;7.90;94083.00;;;;7387532;19;20149;-73
2023/03/21 07:00:12;;;;;;;2.90;2.30;;;;;8.20;94085.00;;;;7400341;19;20141;-75
2023/03/21 07:02:47;;;;;;;2.70;2.13;;;;;8.50;94082.00;;;;7403688;19;20145;-73
2023/03/21 07:05:17;;;;;;;2.47;1.90;;;;;9.00;94086.00;;;;7403218;19;20137;-74
2023/03/21 07:07:51;;;;;;;2.53;2.03;;;;;9.30;94086.00;;;;7404415;19;20617;-72
2023/03/21 07:10:26;;;;;;;2.20;1.70;;;;;9.60;94086.00;;;;7403069;19;20176;-72
2023/03/21 07:13:01;;;;;;;4.47;1.93;;;;;9.80;94085.00;;;;7404970;19;20514;-72
2023/03/21 07:15:29;;;;;;;2.58;1.85;;;;;10.10;94083.00;;;;7403161;19;20146;-73
2023/03/21 07:18:05;;;;;;;2.22;1.85;;;;;10.20;94082.00;;;;7404032;19;20141;-73
2023/03/21 07:20:40;;;;;;;3.45;2.10;;;;;10.40;94085.00;;;;7406222;19;20124;-73
2023/03/21 07:23:14;;;;;;;3.15;2.00;;;;;10.40;94071.00;;;;7400171;19;20144;-74
2023/03/21 07:25:42;;;;;;;3.30;1.63;;;;;10.60;94079.00;;;;7397860;19;20129;-74
2023/03/21 07:28:18;;;;;;;2.58;2.00;;;;;11.00;94073.00;;;;7397960;19;20128;-74
2023/03/21 07:30:53;;;;;;;4.28;1.75;;;;;10.80;94076.00;;;;7398528;19;20490;-76
2023/03/21 07:33:44;;;;;;;2.40;2.20;;;;;10.60;94076.00;;;;7396176;19;20231;-72
2023/03/21 07:36:25;;;;;;;3.40;1.70;;;;;10.50;94079.00;;;;7396275;19;20137;-74
2023/03/21 07:38:52;;;;;;;3.88;1.73;;;;;10.60;94077.00;;;;7401491;19;20164;-72
2023/03/21 07:41:27;;;;;;;3.63;1.92;;;;;11.10;94081.00;;;;7401983;19;20479;-72
2023/03/21 07:43:56;;;;;;;3.55;2.13;;;;;11.30;94072.00;;;;7402496;19;20480;-72
2023/03/21 07:46:30;;;;;;;1.98;1.75;;;;;11.80;94073.00;;;;7402447;19;20136;-73
2023/03/21 07:48:58;;;;;;;2.55;1.75;;;;;12.00;94085.00;;;;7402663;19;20485;-73
2023/03/21 07:51:34;;;;;;;2.08;1.42;;;;;11.80;94076.00;;;;7403278;19;20605;-72
2023/03/21 07:54:09;;;;;;;2.42;1.90;;;;;12.00;94079.00;;;;7403055;19;20120;-72
2023/03/21 07:56:43;;;;;;;3.13;1.73;;;;;11.90;94084.00;;;;7399578;19;20163;-74
2023/03/21 07:59:11;;;;;;;2.65;1.60;;;;;12.20;94084.00;;;;7396733;19;20129;-75
2023/03/21 08:01:45;;;;;;;1.92;1.60;;;;;11.80;94088.00;;;;7401012;19;20145;-73
2023/03/21 08:04:13;;;;;;;1.92;1.73;;;;;11.60;94096.00;;;;7401812;19;20137;-75
2023/03/21 08:06:49;;;;;;;2.03;1.80;;;;;11.50;94084.00;;;;7402016;19;20136;-75
2023/03/21 08:09:24;;;;;;;3.17;1.55;;;;;12.00;94084.00;;;;7398950;19;20141;-79
2023/03/21 08:12:07;;;;;;;4.30;2.10;;;;;12.00;94088.00;;;;7401615;19;20152;-75
2023/03/21 08:14:41;;;;;;;2.42;1.70;;;;;11.40;94089.00;;;;7403043;19;20141;-74
2023/03/21 08:17:15;;;;;;;2.58;1.75;;;;;12.00;94086.00;;;;7398496;19;20163;-75
2023/03/21 08:19:43;;;;;;;2.63;2.05;;;;;12.60;94086.00;;;;7400952;19;20148;-77
2023/03/21 08:22:18;;;;;;;3.03;1.80;;;;;12.90;94084.00;;;;7401274;19;20136;-75
2023/03/21 08:24:45;;;;;;;2.50;1.92;;;;;12.80;94088.00;;;;7403573;19;20156;-75
2023/03/21 08:27:19;;;;;;;5.80;1.65;;;;;12.50;94085.00;;;;7401676;19;20172;-75
2023/03/21 08:29:47;;;;;;;1.73;1.20;;;;;12.80;94085.00;;;;7401082;19;20492;-75
2023/03/21 08:32:28;;;;;;;4.25;1.88;;;;;13.30;94076.00;;;;7400003;19;20487;-74
2023/03/21 08:34:58;;;;;;;4.18;1.60;;;;;14.50;94082.00;;;;7399789;19;20358;-73
2023/03/21 08:37:33;;;;;;;2.00;1.52;;;;;14.70;94079.00;;;;7399227;19;20204;-72
2023/03/21 08:40:15;;;;;;;1.85;1.52;;;;;15.10;94072.00;;;;7401489;19;20152;-74
2023/03/21 08:42:45;;;;;;;2.55;1.42;;;;;15.20;94070.00;;;;7399676;19;20566;-73
2023/03/21 08:45:21;;;;;;;2.03;1.73;;;;;15.10;94070.00;;;;7398946;19;20171;-74
2023/03/21 08:47:52;;;;;;;2.28;1.67;;;;;15.20;94079.00;;;;7399246;19;20145;-75
2023/03/21 08:50:28;;;;;;;2.60;1.42;;;;;14.70;94070.00;;;;7399581;19;20136;-74
2023/03/21 08:52:56;;;;;;;1.60;1.50;;;;;14.40;94068.00;;;;7398017;19;20148;-73
2023/03/21 08:55:32;;;;;;;2.00;1.80;;;;;14.60;94066.00;;;;7397844;19;20997;-73
2023/03/21 08:58:00;;;;;;;5.45;1.88;;;;;15.00;94074.00;;;;7396382;19;20212;-74
2023/03/21 09:00:28;;;;;;;1.95;1.40;;;;;15.40;94066.00;;;;7397780;19;20151;-74
2023/03/21 09:03:03;;;;;;;2.53;1.75;;;;;15.30;94080.00;;;;7398155;19;20166;-74
2023/03/21 09:05:31;;;;;;;1.60;1.45;;;;;15.30;94077.00;;;;7399657;19;20484;-75
2023/03/21 09:08:06;;;;;;;2.38;1.65;;;;;15.00;94076.00;;;;7398936;19;20583;-75
2023/03/21 09:10:40;;;;;;;2.13;1.60;;;;;14.80;94063.00;;;;7397336;19;20161;-75
2023/03/21 09:13:15;;;;;;;1.90;1.70;;;;;15.50;94072.00;;;;7398314;19;20196;-75
2023/03/21 09:15:44;;;;;;;3.00;1.75;;;;;14.80;94081.00;;;;7397579;19;20154;-74
2023/03/21 09:18:21;;;;;;;2.00;1.80;;;;;14.50;94082.00;;;;7398223;19;20143;-74
2023/03/21 09:20:49;;;;;;;1.75;1.65;;;;;15.10;94075.00;;;;7395574;19;20621;-73
2023/03/21 09:23:24;;;;;;;2.83;1.80;;;;;14.90;94071.00;;;;7398555;19;20136;-74
2023/03/21 09:25:51;;;;;;;3.15;1.73;;;;;14.90;94075.00;;;;7399413;19;20203;-75
2023/03/21 09:28:26;;;;;;;3.53;2.13;;;;;15.10;94074.00;;;;7398264;19;20133;-72
2023/03/21 09:30:57;;;;;;;3.28;2.10;;;;;14.60;94080.00;;;;7397474;19;20592;-74
2023/03/21 09:33:31;;;;;;;2.45;1.70;;;;;14.80;94090.00;;;;7398321;19;20133;-75
2023/03/21 09:35:59;;;;;;;3.97;1.80;;;;;14.80;94093.00;;;;7397360;19;20516;-73
2023/03/21 09:38:36;;;;;;;1.95;1.55;;;;;15.00;94088.00;;;;7397975;19;20543;-74
2023/03/21 09:41:26;;;;;;;2.60;1.60;;;;;14.80;94086.00;;;;7398643;19;20125;-75
2023/03/21 09:44:17;;;;;;;5.20;1.80;;;;;15.00;94078.00;;;;7397744;19;20136;-73
2023/03/21 09:46:54;;;;;;;2.10;1.70;;;;;14.70;94089.00;;;;7397741;19;20152;-75
2023/03/21 09:49:34;;;;;;;1.60;1.50;;;;;14.60;94095.00;;;;7398668;19;20132;-74
2023/03/21 09:52:42;;;;;;;1.98;1.63;;;;;14.50;94096.00;;;;7396122;19;20624;-74
2023/03/21 09:55:29;;;;;;;5.20;1.60;;;;;13.50;94094.00;;;;7397942;19;20583;-74
2023/03/21 09:58:24;;;;;;;1.85;1.50;;;;;14.10;94088.00;;;;7393258;19;20596;-73
2023/03/21 10:01:09;;;;;;;1.52;1.20;;;;;14.20;94085.00;;;;7397997;19;20484;-74
2023/03/21 10:03:43;;;;;;;2.83;1.50;;;;;14.40;94085.00;;;;7395164;19;20626;-72
2023/03/21 10:06:27;;;;;;;1.92;1.33;;;;;15.00;94084.00;;;;7397205;19;20632;-73
2023/03/21 10:09:28;;;;;;;1.95;1.30;;;;;14.90;94083.00;;;;7396677;19;20159;-74
2023/03/21 10:12:20;;;;;;;3.15;1.65;;;;;14.60;94080.00;;;;7397070;19;20132;-73
2023/03/21 10:14:53;;;;;;;1.27;1.17;;;;;15.00;94076.00;;;;7396970;19;20140;-73
2023/03/21 10:17:40;;;;;;;1.48;1.10;;;;;15.30;94086.00;;;;7396046;19;20136;-73
2023/03/21 10:20:20;;;;;;;3.13;1.30;;;;;15.10;94077.00;;;;7397682;19;20129;-73
2023/03/21 10:22:57;;;;;;;4.45;1.10;;;;;15.00;94082.00;;;;7396722;19;20125;-73
2023/03/21 10:25:36;;;;;;;2.65;1.52;;;;;15.30;94075.00;;;;7396342;19;20121;-73
2023/03/21 10:28:19;;;;;;;2.20;1.50;;;;;15.40;94074.00;;;;7396314;19;20124;-73
2023/03/21 10:30:55;;;;;;;1.98;1.40;;;;;15.50;94075.00;;;;7396848;19;20137;-72
2023/03/21 10:33:44;;;;;;;1.58;1.30;;;;;15.60;94065.00;;;;7403405;19;20125;-73
2023/03/21 10:36:24;;;;;;;2.75;1.25;;;;;16.00;94074.00;;;;7402434;19;20133;-74
2023/03/21 10:38:55;;;;;;;1.85;1.42;;;;;15.70;94071.00;;;;7404058;19;20603;-73
2023/03/21 10:41:30;;;;;;;2.17;1.42;;;;;15.60;94078.00;;;;7404376;19;20152;-75
2023/03/21 10:44:13;;;;;;;1.60;1.42;;;;;15.60;94073.00;;;;7404553;19;20136;-72
2023/03/21 10:47:02;;;;;;;1.88;1.50;;;;;15.60;94081.00;;;;7402850;19;20128;-73
2023/03/21 10:49:38;;;;;;;1.65;1.52;;;;;15.60;94085.00;;;;7404939;19;20152;-74
2023/03/21 10:52:34;;;;;;;3.20;1.50;;;;;16.00;94075.00;;;;7401762;19;20145;-73
2023/03/21 10:55:27;;;;;;;1.45;1.35;;;;;16.10;94071.00;;;;7403586;19;20144;-74
2023/03/21 10:58:17;;;;;;;3.60;1.60;;;;;16.20;94063.00;;;;7398915;19;20492;-74
2023/03/21 11:00:59;;;;;;;1.55;1.25;;;;;16.00;94075.00;;;;7402514;19;20576;-74
2023/03/21 11:03:31;;;;;;;2.25;1.52;;;;;15.20;94073.00;;;;7401868;19;20165;-73
2023/03/21 11:06:07;;;;;;;2.97;1.70;;;;;15.90;94065.00;;;;7402827;19;20128;-74
2023/03/21 11:08:45;;;;;;;2.40;1.60;;;;;15.60;94063.00;;;;7402950;19;20120;-73
2023/03/21 11:11:38;;;;;;;1.60;1.50;;;;;15.90;94063.00;;;;7404135;19;20156;-74
2023/03/21 11:14:32;;;;;;;2.20;1.52;;;;;16.30;94064.00;;;;7403905;19;20129;-73
2023/03/21 11:16:59;;;;;;;2.80;1.40;;;;;15.90;94060.00;;;;7400738;19;20137;-74
2023/03/21 11:19:35;;;;;;;2.40;1.50;;;;;15.90;94056.00;;;;7402140;19;20608;-75
2023/03/21 11:22:10;;;;;;;1.48;1.38;;;;;16.00;94056.00;;;;7401796;19;20592;-74
2023/03/21 11:24:53;;;;;;;2.15;1.65;;;;;15.40;94057.00;;;;7401893;19;20152;-75
2023/03/21 11:27:29;;;;;;;3.15;1.92;;;;;15.70;94057.00;;;;7401956;19;20166;-74
2023/03/21 11:30:00;;;;;;;1.75;1.25;;;;;15.60;94057.00;;;;7403322;19;20153;-73
2023/03/21 11:32:37;;;;;;;1.60;1.50;;;;;16.00;94060.00;;;;7402128;19;20145;-73
2023/03/21 11:35:19;;;;;;;6.28;1.70;;;;;16.50;94052.00;;;;7403073;19;20623;-73
2023/03/21 11:37:56;;;;;;;2.40;1.70;;;;;17.50;94046.00;;;;7396305;19;20133;-73
2023/03/21 11:40:32;;;;;;;2.05;1.50;;;;;17.70;94041.00;;;;7401022;19;20143;-72
2023/03/21 11:43:30;;;;;;;1.67;1.33;;;;;17.60;94023.00;;;;7401265;19;20129;-72
2023/03/21 11:46:08;;;;;;;4.05;1.50;;;;;18.60;94021.00;;;;7403260;19;20137;-73
2023/03/21 11:48:49;;;;;;;2.83;1.67;;;;;18.70;94022.00;;;;7403001;19;20133;-74
2023/03/21 11:51:25;;;;;;;2.17;1.55;;;;;19.50;94019.00;;;;7403234;19;20196;-72
2023/03/21 11:54:37;;;;;;;2.85;1.55;;;;;19.70;94004.00;;;;7401488;19;20160;-73
2023/03/21 11:57:45;;;;;;;2.33;1.58;;;;;20.20;94002.00;;;;7395612;19;20187;-73
2023/03/21 12:00:28;;;;;;;1.90;1.67;;;;;20.60;94006.00;;;;7397640;19;20140;-73
2023/03/21 12:03:11;;;;;;;1.50;1.40;;;;;20.90;94002.00;;;;7401136;19;20610;-73
2023/03/21 12:06:13;;;;;;;1.67;1.52;;;;;20.70;94007.00;;;;7401965;19;20486;-74
2023/03/21 12:08:56;;;;;;;1.83;1.50;;;;;20.30;94003.00;;;;7400682;19;20591;-72
2023/03/21 12:11:51;;;;;;;3.50;1.85;;;;;19.30;94000.00;;;;7400733;19;20136;-73
2023/03/21 12:14:41;;;;;;;2.28;1.50;;;;;20.60;93979.00;;;;7402271;19;20141;-74
2023/03/21 12:17:28;;;;;;;2.22;1.98;;;;;21.10;93990.00;;;;7395836;19;20133;-74
2023/03/21 12:20:22;;;;;;;2.10;1.42;;;;;20.90;93976.00;;;;7400672;19;20156;-73
2023/03/21 12:23:20;;;;;;;3.05;1.23;;;;;21.00;93963.00;;;;7402188;19;20128;-74
2023/03/21 12:26:02;;;;;;;1.70;1.23;;;;;21.00;93965.00;;;;7400527;19;20135;-74
2023/03/21 12:28:58;;;;;;;1.33;1.13;;;;;22.80;93975.00;;;;7400130;19;20148;-74
2023/03/21 12:31:45;;;;;;;2.97;2.03;;;;;21.80;93975.00;;;;7400826;19;20705;-74
2023/03/21 12:34:19;;;;;;;1.60;1.50;;;;;21.80;93978.00;;;;7401661;19;20133;-74
2023/03/21 12:36:56;;;;;;;1.38;1.20;;;;;20.90;93975.00;;;;7400637;19;20449;-74
2023/03/21 12:39:37;;;;;;;1.33;1.23;;;;;21.10;93978.00;;;;7401528;19;20129;-74
2023/03/21 12:42:30;;;;;;;4.10;1.67;;;;;20.20;93976.00;;;;7400181;19;20200;-74
2023/03/21 12:45:09;;;;;;;3.60;1.70;;;;;19.30;93977.00;;;;7399707;19;20204;-74
2023/03/21 12:47:55;;;;;;;3.78;1.63;;;;;19.70;93985.00;;;;7401117;19;20537;-74
2023/03/21 12:50:36;;;;;;;2.55;1.60;;;;;18.80;93979.00;;;;7400115;19;20140;-74
2023/03/21 12:53:22;;;;;;;1.95;1.40;;;;;18.20;93978.00;;;;7399139;19;20145;-73
2023/03/21 12:55:59;;;;;;;1.98;1.60;;;;;17.40;93987.00;;;;7399695;19;20137;-74
2023/03/21 12:58:46;;;;;;;3.55;1.58;;;;;17.20;93988.00;;;;7394239;19;20144;-73
2023/03/21 13:01:19;;;;;;;3.42;1.52;;;;;17.10;93982.00;;;;7399085;19;20124;-72
2023/03/21 13:04:19;;;;;;;3.88;1.30;;;;;17.40;93981.00;;;;7396895;19;20647;-75
2023/03/21 13:06:57;;;;;;;3.03;1.48;;;;;16.50;93984.00;;;;7399212;19;20133;-73
2023/03/21 13:09:42;;;;;;;1.80;1.50;;;;;16.60;93992.00;;;;7398239;19;20191;-74
2023/03/21 13:12:39;;;;;;;2.28;1.65;;;;;17.40;93987.00;;;;7400323;19;20129;-73
2023/03/21 13:15:35;;;;;;;3.67;2.08;;;;;17.60;93992.00;;;;7400439;19;20125;-73
2023/03/21 13:18:37;;;;;;;2.88;1.60;;;;;17.20;93993.00;;;;7399189;19;20512;-74
2023/03/21 13:21:26;;;;;;;1.58;1.48;;;;;17.30;93985.00;;;;7400303;19;20592;-73
2023/03/21 13:24:22;;;;;;;3.80;1.60;;;;;16.80;93978.00;;;;7398640;19;20624;-72